Time;durP1;ratioP1;P1;durP2;ratioP2;P2;SDS_P1;SDS_P2;PMS_P1;PMS_P2;Temp;Humidity;BMP_temperature;BMP_pressure;BME280_temperature;BME280_humidity;BME280_pressure;Samples;Min_cycle;Max_cycle;Signal;HPM_P1;HPM_P2
2021/04/08 00:01:25;;;;;;;5.70;3.10;;;;;;;1.54;100.00;98694.38;5093981;28;20224;-69
2021/04/08 00:03:51;;;;;;;5.50;3.40;;;;;;;1.60;100.00;98707.25;5093862;28;20209;-69
2021/04/08 00:06:18;;;;;;;3.93;3.30;;;;;;;1.62;100.00;98704.63;5094210;28;20257;-69
2021/04/08 00:08:44;;;;;;;5.30;3.70;;;;;;;1.67;100.00;98705.38;5093916;28;20610;-69
2021/04/08 00:11:10;;;;;;;5.37;4.63;;;;;;;1.68;100.00;98713.16;5091887;28;20217;-69
2021/04/08 00:13:36;;;;;;;5.00;3.63;;;;;;;1.63;100.00;98709.81;5093455;28;20238;-65
2021/04/08 00:16:02;;;;;;;5.80;4.10;;;;;;;1.58;100.00;98711.66;5093582;28;20213;-65
2021/04/08 00:18:28;;;;;;;7.37;3.90;;;;;;;1.54;100.00;98710.03;5093889;28;20560;-65
2021/04/08 00:20:54;;;;;;;6.20;4.30;;;;;;;1.53;100.00;98705.72;5093877;28;20615;-65
2021/04/08 00:23:21;;;;;;;5.00;4.47;;;;;;;1.51;100.00;98704.03;5093758;28;20205;-66
2021/04/08 00:25:47;;;;;;;8.77;4.90;;;;;;;1.48;100.00;98710.16;5093876;28;20642;-66
2021/04/08 00:28:13;;;;;;;6.47;4.50;;;;;;;1.48;100.00;98712.78;5093698;28;20210;-66
2021/04/08 00:30:43;;;;;;;7.77;4.73;;;;;;;1.39;100.00;98720.81;5093485;28;20306;-67
2021/04/08 00:33:10;;;;;;;6.10;4.40;;;;;;;1.43;100.00;98719.88;5093329;28;20691;-66
2021/04/08 00:35:36;;;;;;;7.63;4.13;;;;;;;1.43;100.00;98725.06;5092903;28;20216;-67
2021/04/08 00:38:02;;;;;;;6.30;4.20;;;;;;;1.39;100.00;98720.81;5092283;28;20297;-65
2021/04/08 00:40:29;;;;;;;4.47;3.97;;;;;;;1.36;100.00;98725.25;5093705;28;20208;-66
2021/04/08 00:42:55;;;;;;;6.60;4.03;;;;;;;1.38;100.00;98721.72;5093664;28;20210;-65
2021/04/08 00:45:21;;;;;;;5.07;4.00;;;;;;;1.43;100.00;98725.06;5093415;28;20249;-65
2021/04/08 00:47:47;;;;;;;7.27;3.70;;;;;;;1.44;100.00;98729.38;5093580;28;20217;-65
2021/04/08 00:50:14;;;;;;;4.50;3.73;;;;;;;1.48;100.00;98728.41;5093209;28;20207;-66
2021/04/08 00:52:42;;;;;;;5.83;4.07;;;;;;;1.58;100.00;98732.50;5093404;28;20208;-65
2021/04/08 00:55:09;;;;;;;6.13;3.70;;;;;;;1.68;100.00;98728.78;5093163;28;20224;-65
2021/04/08 00:57:36;;;;;;;5.80;4.43;;;;;;;1.78;100.00;98730.25;5093306;28;20213;-65
2021/04/08 01:00:05;;;;;;;5.80;3.77;;;;;;;1.82;100.00;98731.91;5093171;28;20633;-67
2021/04/08 01:02:32;;;;;;;4.57;3.83;;;;;;;1.80;100.00;98740.66;5091397;28;20584;-65
2021/04/08 01:04:59;;;;;;;6.20;4.13;;;;;;;1.77;100.00;98744.19;5093265;28;20234;-65
2021/04/08 01:07:25;;;;;;;4.60;4.00;;;;;;;1.81;100.00;98738.00;5093066;28;20669;-65
2021/04/08 01:09:51;;;;;;;9.37;4.30;;;;;;;1.86;100.00;98738.75;5093105;28;20206;-64
2021/04/08 01:12:17;;;;;;;6.37;4.17;;;;;;;1.94;100.00;98743.75;5092863;28;20602;-66
2021/04/08 01:14:44;;;;;;;7.27;4.20;;;;;;;2.00;100.00;98752.28;5092792;28;20259;-68
2021/04/08 01:17:20;;;;;;;4.30;3.47;;;;;;;2.02;100.00;98750.47;5092854;28;20210;-67
2021/04/08 01:20:21;;;;;;;4.87;3.97;;;;;;;2.06;100.00;98752.13;5093033;28;20207;-66
2021/04/08 01:23:22;;;;;;;7.00;3.80;;;;;;;2.09;99.53;98754.66;5093808;28;20209;-65
2021/04/08 01:26:10;;;;;;;4.23;3.43;;;;;;;2.16;98.54;98758.84;5096893;28;20235;-65
2021/04/08 01:28:39;;;;;;;4.27;3.20;;;;;;;2.24;97.62;98764.69;5095604;28;20213;-66
2021/04/08 01:31:07;;;;;;;6.07;3.17;;;;;;;2.34;93.97;98773.97;5097241;28;20206;-65
2021/04/08 01:33:40;;;;;;;4.00;2.80;;;;;;;2.43;92.30;98780.69;5096888;28;20215;-65
2021/04/08 01:36:09;;;;;;;4.43;3.70;;;;;;;2.51;93.33;98781.38;5097066;28;20230;-66
2021/04/08 01:38:41;;;;;;;4.50;3.20;;;;;;;2.48;94.38;98779.69;5096718;28;20577;-66
2021/04/08 01:41:08;;;;;;;6.03;4.03;;;;;;;2.45;96.35;98782.38;5096671;28;20222;-66
2021/04/08 01:43:37;;;;;;;4.83;3.70;;;;;;;2.46;95.78;98788.44;5096744;28;20254;-66
2021/04/08 01:46:05;;;;;;;6.57;3.90;;;;;;;2.45;96.01;98792.81;5096637;28;20238;-65
2021/04/08 01:48:33;;;;;;;4.53;3.43;;;;;;;2.48;96.47;98786.66;5097374;28;20213;-68
2021/04/08 01:51:01;;;;;;;3.97;3.30;;;;;;;2.48;96.66;98792.72;5097191;28;20210;-66
2021/04/08 01:53:29;;;;;;;5.73;3.97;;;;;;;2.46;96.53;98794.50;5097023;28;20211;-67
2021/04/08 01:55:58;;;;;;;4.93;3.30;;;;;;;2.50;96.50;98803.13;5095112;28;20205;-66
2021/04/08 01:58:25;;;;;;;9.07;3.57;;;;;;;2.54;96.93;98799.53;5096632;28;20204;-68
2021/04/08 02:00:53;;;;;;;3.33;2.93;;;;;;;2.55;96.96;98799.50;5096565;28;20212;-67
2021/04/08 02:03:20;;;;;;;4.80;3.50;;;;;;;2.60;96.81;98799.38;5096557;28;20240;-66
2021/04/08 02:05:49;;;;;;;4.27;3.47;;;;;;;2.59;96.56;98806.34;5096130;28;20705;-65
2021/04/08 02:08:16;;;;;;;8.80;5.43;;;;;;;2.66;95.99;98802.69;5096310;28;20213;-65
2021/04/08 02:10:43;;;;;;;3.87;3.20;;;;;;;2.67;95.75;98807.00;5096229;28;20208;-69
2021/04/08 02:13:10;;;;;;;3.57;3.20;;;;;;;2.63;95.45;98807.13;5096349;28;20244;-65
2021/04/08 02:15:37;;;;;;;4.40;3.30;;;;;;;2.69;94.54;98814.78;5096364;28;20214;-68
2021/04/08 02:18:04;;;;;;;4.93;3.07;;;;;;;2.75;94.21;98810.25;5096307;28;20209;-66
2021/04/08 02:20:33;;;;;;;4.20;2.90;;;;;;;2.78;93.70;98797.13;5094525;28;20217;-65
2021/04/08 02:23:01;;;;;;;5.37;3.03;;;;;;;2.73;93.91;98809.44;5096242;28;20216;-64
2021/04/08 02:25:30;;;;;;;3.43;3.13;;;;;;;2.78;93.31;98812.78;5095820;28;20236;-65
2021/04/08 02:27:59;;;;;;;3.27;2.40;;;;;;;2.79;92.77;98819.72;5096021;28;20215;-65
2021/04/08 02:30:25;;;;;;;5.23;3.00;;;;;;;2.79;92.82;98811.88;5095963;28;20223;-65
2021/04/08 02:32:53;;;;;;;3.70;2.40;;;;;;;2.86;91.92;98810.81;5095772;28;20242;-65
2021/04/08 02:35:19;;;;;;;3.73;2.30;;;;;;;2.90;91.20;98815.06;5095174;28;20209;-66
2021/04/08 02:37:49;;;;;;;5.27;2.80;;;;;;;2.90;91.29;98814.19;5095547;28;20682;-65
2021/04/08 02:40:19;;;;;;;3.80;2.80;;;;;;;2.91;91.24;98813.28;5095807;28;20209;-65
2021/04/08 02:42:45;;;;;;;3.77;2.90;;;;;;;2.90;91.06;98811.56;5095719;28;20213;-65
2021/04/08 02:45:13;;;;;;;3.63;3.00;;;;;;;2.90;90.86;98817.66;5095470;28;20225;-65
2021/04/08 02:47:39;;;;;;;3.27;2.70;;;;;;;2.91;90.86;98819.38;5094056;28;20577;-65
2021/04/08 02:50:07;;;;;;;3.97;2.80;;;;;;;2.89;90.69;98821.13;5095746;28;20290;-65
2021/04/08 02:52:42;;;;;;;6.27;3.30;;;;;;;2.87;90.48;98828.16;5095779;28;20211;-65
2021/04/08 02:55:14;;;;;;;5.23;2.80;;;;;;;2.91;90.15;98824.59;5095661;28;20212;-66
2021/04/08 02:57:49;;;;;;;4.37;2.57;;;;;;;2.89;90.34;98834.19;5095564;28;20354;-66
2021/04/08 03:00:17;;;;;;;3.93;2.93;;;;;;;2.87;90.22;98838.63;5095495;28;20265;-67
2021/04/08 03:02:44;;;;;;;5.33;2.87;;;;;;;2.86;90.11;98841.25;5095435;28;20344;-67
2021/04/08 03:05:14;;;;;;;6.03;2.97;;;;;;;2.85;89.64;98844.78;5095338;28;20237;-65
2021/04/08 03:07:42;;;;;;;4.83;3.13;;;;;;;2.78;87.45;98844.09;5095350;28;20568;-66
2021/04/08 03:10:11;;;;;;;3.50;3.20;;;;;;;2.83;87.33;98844.84;5095311;28;20271;-66
2021/04/08 03:12:41;;;;;;;5.03;3.23;;;;;;;2.90;87.15;98849.00;5093258;28;20274;-66
2021/04/08 03:15:10;;;;;;;3.17;2.63;;;;;;;2.92;86.80;98852.41;5095218;28;20213;-65
2021/04/08 03:17:39;;;;;;;4.70;3.07;;;;;;;2.88;88.01;98850.75;5094806;28;20209;-66
2021/04/08 03:20:06;;;;;;;3.47;3.17;;;;;;;2.89;87.86;98862.91;5094753;28;20631;-66
2021/04/08 03:22:34;;;;;;;5.43;3.17;;;;;;;2.78;87.87;98853.66;5094912;28;20205;-63
2021/04/08 03:25:00;;;;;;;5.43;4.20;;;;;;;2.56;81.09;98853.38;5094511;28;20272;-66
2021/04/08 03:27:27;;;;;;;5.20;3.97;;;;;;;2.63;83.14;98854.94;5094819;28;20212;-65
2021/04/08 03:29:54;;;;;;;3.53;3.20;;;;;;;2.62;83.78;98858.44;5094795;28;20298;-65
2021/04/08 03:32:21;;;;;;;4.07;3.50;;;;;;;2.64;83.87;98861.84;5094747;28;20217;-65
2021/04/08 03:34:49;;;;;;;5.07;3.53;;;;;;;2.47;81.20;98861.47;5094693;28;20211;-65
2021/04/08 03:37:16;;;;;;;7.23;4.07;;;;;;;2.41;78.60;98864.22;5094684;28;20215;-64
2021/04/08 03:39:43;;;;;;;4.77;3.63;;;;;;;2.46;80.64;98859.72;5092943;28;20208;-63
2021/04/08 03:42:12;;;;;;;4.43;3.63;;;;;;;2.52;81.58;98861.34;5094704;28;20210;-63
2021/04/08 03:44:39;;;;;;;6.00;4.10;;;;;;;2.47;81.87;98861.47;5093955;28;20232;-63
2021/04/08 03:47:06;;;;;;;6.47;3.93;;;;;;;2.45;81.25;98865.84;5093947;28;20254;-64
2021/04/08 03:49:34;;;;;;;4.37;3.50;;;;;;;2.46;81.34;98862.34;5094575;28;20204;-64
2021/04/08 03:52:02;;;;;;;5.37;3.97;;;;;;;2.47;81.04;98864.06;5094497;28;20267;-66
2021/04/08 03:54:30;;;;;;;4.67;3.63;;;;;;;2.46;81.17;98858.88;5094383;28;20255;-66
2021/04/08 03:56:58;;;;;;;6.60;3.90;;;;;;;2.45;80.48;98865.84;5094489;28;20213;-65
2021/04/08 03:59:24;;;;;;;5.60;3.63;;;;;;;2.42;80.37;98860.72;5094380;28;20632;-65
2021/04/08 04:01:51;;;;;;;5.80;3.80;;;;;;;2.44;79.75;98866.75;5093947;28;20217;-66
2021/04/08 04:04:18;;;;;;;4.90;3.73;;;;;;;2.37;80.15;98867.81;5092749;28;20232;-66
2021/04/08 04:06:51;;;;;;;6.73;4.20;;;;;;;2.42;80.59;98881.59;5093624;28;20217;-66
2021/04/08 04:09:17;;;;;;;5.27;3.70;;;;;;;2.41;80.55;98879.00;5094079;28;20308;-66
2021/04/08 04:11:45;;;;;;;7.17;4.00;;;;;;;2.41;80.24;98874.66;5094400;28;20212;-66
2021/04/08 04:14:14;;;;;;;5.63;3.50;;;;;;;2.37;80.31;98878.22;5094056;28;20237;-66
2021/04/08 04:16:43;;;;;;;7.57;3.87;;;;;;;2.37;80.20;98882.59;5094026;28;20262;-66
2021/04/08 04:19:09;;;;;;;5.43;3.90;;;;;;;2.36;80.53;98886.97;5093982;28;20216;-66
2021/04/08 04:21:35;;;;;;;6.80;4.03;;;;;;;2.38;79.63;98886.94;5093709;28;20574;-66
2021/04/08 04:24:03;;;;;;;6.33;3.70;;;;;;;2.39;79.74;98886.88;5093647;28;20208;-66
2021/04/08 04:26:29;;;;;;;7.43;4.20;;;;;;;2.39;79.52;98892.09;5093579;28;20677;-66
2021/04/08 04:28:55;;;;;;;6.87;4.53;;;;;;;2.47;79.16;98884.94;5093806;28;20247;-64
2021/04/08 04:31:21;;;;;;;5.80;3.50;;;;;;;2.48;78.87;98894.47;5092200;28;20258;-63
2021/04/08 04:33:47;;;;;;;7.77;3.93;;;;;;;2.53;78.17;98894.34;5093763;28;20209;-63
2021/04/08 04:36:13;;;;;;;8.07;4.00;;;;;;;2.52;78.52;98888.28;5093782;28;20205;-63
2021/04/08 04:38:39;;;;;;;6.20;3.90;;;;;;;2.52;78.21;98903.09;5093367;28;20213;-63
2021/04/08 04:41:06;;;;;;;5.33;3.83;;;;;;;2.52;78.10;98909.13;5093687;28;20221;-64
2021/04/08 04:43:32;;;;;;;6.07;4.03;;;;;;;2.53;78.32;98907.41;5093290;28;20211;-64
2021/04/08 04:45:58;;;;;;;5.07;3.80;;;;;;;2.49;78.96;98908.38;5093425;28;20598;-64
2021/04/08 04:48:24;;;;;;;5.50;3.47;;;;;;;2.50;79.31;98905.72;5093467;28;20220;-63
2021/04/08 04:50:51;;;;;;;4.83;3.93;;;;;;;2.43;79.69;98914.59;5093229;28;20251;-63
2021/04/08 04:53:17;;;;;;;5.73;4.07;;;;;;;2.40;80.60;98914.66;5093379;28;20221;-63
2021/04/08 04:55:43;;;;;;;7.63;3.63;;;;;;;2.37;81.03;98913.88;5093417;28;20771;-63
2021/04/08 04:58:10;;;;;;;7.10;3.97;;;;;;;2.36;81.09;98923.47;5091684;28;20213;-63
2021/04/08 05:00:35;;;;;;;7.87;4.60;;;;;;;2.36;80.97;98928.69;5093498;28;20571;-63
2021/04/08 05:03:01;;;;;;;7.50;4.50;;;;;;;2.38;81.42;98926.91;5093312;28;20220;-64
2021/04/08 05:05:28;;;;;;;5.97;3.97;;;;;;;2.37;81.42;98930.41;5093030;28;20702;-64
2021/04/08 05:07:54;;;;;;;5.07;4.40;;;;;;;2.38;81.89;98931.28;5093242;28;20296;-65
2021/04/08 05:10:20;;;;;;;6.67;4.13;;;;;;;2.42;82.50;98933.75;5092857;28;20291;-66
2021/04/08 05:12:46;;;;;;;6.47;4.40;;;;;;;2.45;83.12;98941.50;5093017;28;20612;-68
2021/04/08 05:15:13;;;;;;;7.50;4.47;;;;;;;2.41;84.62;98937.28;5093261;28;20258;-65
2021/04/08 05:17:39;;;;;;;9.50;4.63;;;;;;;2.44;85.03;98936.34;5093069;28;20214;-65
2021/04/08 05:20:06;;;;;;;5.30;4.40;;;;;;;2.40;86.43;98930.31;5093241;28;20219;-64
2021/04/08 05:22:33;;;;;;;6.17;4.23;;;;;;;2.46;86.79;98935.38;5091131;28;20213;-66
2021/04/08 05:24:58;;;;;;;5.07;4.50;;;;;;;2.52;87.32;98940.44;5093011;28;20590;-67
2021/04/08 05:27:24;;;;;;;6.20;4.47;;;;;;;2.56;87.44;98938.66;5093062;28;20221;-67
2021/04/08 05:29:50;;;;;;;4.53;4.07;;;;;;;2.54;87.83;98945.63;5092644;28;20258;-66
2021/04/08 05:32:17;;;;;;;4.80;3.90;;;;;;;2.58;88.32;98949.91;5093081;28;20297;-65
2021/04/08 05:34:43;;;;;;;5.07;4.30;;;;;;;2.59;88.55;98956.81;5092701;28;20220;-65
2021/04/08 05:37:09;;;;;;;6.90;4.23;;;;;;;2.61;88.88;98961.13;5092955;28;20209;-65
2021/04/08 05:39:35;;;;;;;7.73;4.13;;;;;;;2.60;88.84;98962.03;5092899;28;20216;-68
2021/04/08 05:42:01;;;;;;;6.57;3.90;;;;;;;2.61;87.79;98953.28;5092979;28;20252;-67
2021/04/08 05:44:27;;;;;;;6.00;3.50;;;;;;;2.58;87.04;98955.97;5092851;28;20275;-65
2021/04/08 05:46:53;;;;;;;6.77;3.40;;;;;;;2.63;87.54;98964.53;5093042;28;20232;-65
2021/04/08 05:49:20;;;;;;;4.53;3.73;;;;;;;2.71;87.64;98965.22;5092500;28;20214;-66
2021/04/08 05:51:46;;;;;;;6.60;4.10;;;;;;;2.72;85.01;98964.31;5093422;28;20703;-68
2021/04/08 05:54:12;;;;;;;4.97;3.97;;;;;;;2.86;83.64;98966.56;5093151;28;20211;-68
2021/04/08 05:56:38;;;;;;;4.20;3.57;;;;;;;2.95;83.50;98961.13;5092585;28;20210;-67
2021/04/08 05:59:04;;;;;;;5.77;4.00;;;;;;;3.03;82.60;98965.25;5092651;28;20218;-66
2021/04/08 06:01:30;;;;;;;5.37;3.70;;;;;;;3.09;81.44;98965.09;5092185;28;20331;-66
2021/04/08 06:03:56;;;;;;;6.43;4.00;;;;;;;3.13;80.58;98971.94;5092587;28;20214;-66
2021/04/08 06:06:23;;;;;;;3.97;3.37;;;;;;;3.11;79.21;98970.28;5092763;28;20252;-66
2021/04/08 06:08:49;;;;;;;5.37;3.53;;;;;;;3.24;79.10;98974.28;5093664;28;20210;-67
2021/04/08 06:11:15;;;;;;;5.13;3.70;;;;;;;3.21;78.61;98977.81;5096281;28;20224;-67
2021/04/08 06:13:41;;;;;;;5.03;3.90;;;;;;;3.29;78.25;98981.06;5096083;28;20586;-67
2021/04/08 06:16:07;;;;;;;6.50;3.60;;;;;;;3.39;77.88;98974.72;5094359;28;20219;-66
2021/04/08 06:18:33;;;;;;;4.60;3.63;;;;;;;3.49;77.69;98977.94;5096233;28;20211;-66
2021/04/08 06:20:59;;;;;;;8.53;4.27;;;;;;;3.55;76.72;98985.59;5095855;28;20769;-67
2021/04/08 06:23:26;;;;;;;6.23;4.37;;;;;;;3.60;76.70;98983.72;5095932;28;20209;-67
2021/04/08 06:25:52;;;;;;;4.97;4.10;;;;;;;3.59;76.29;98982.84;5095957;28;20233;-67
2021/04/08 06:28:18;;;;;;;5.83;4.10;;;;;;;3.67;75.59;98988.72;5096095;28;20214;-68
2021/04/08 06:30:45;;;;;;;7.10;3.80;;;;;;;3.80;74.62;98982.22;5095923;28;20242;-66
2021/04/08 06:33:12;;;;;;;6.10;3.93;;;;;;;3.89;73.95;98992.44;5095891;28;20207;-66
2021/04/08 06:35:38;;;;;;;4.90;3.90;;;;;;;3.95;73.32;98986.16;5095907;28;20218;-67
2021/04/08 06:38:04;;;;;;;4.90;3.80;;;;;;;4.05;71.43;98987.59;5095851;28;20220;-66
2021/04/08 06:40:31;;;;;;;6.33;4.17;;;;;;;4.18;70.69;98983.72;5095807;28;20301;-66
2021/04/08 06:42:57;;;;;;;5.20;4.20;;;;;;;4.17;70.08;98987.25;5093936;28;20221;-67
2021/04/08 06:45:25;;;;;;;4.87;4.33;;;;;;;4.20;70.68;98992.38;5095689;28;20234;-67
2021/04/08 06:47:59;;;;;;;6.67;4.63;;;;;;;4.24;71.13;98989.63;5095753;28;20304;-67
2021/04/08 06:50:29;;;;;;;6.17;4.30;;;;;;;4.35;70.75;98991.91;5095347;28;20213;-67
2021/04/08 06:52:57;;;;;;;10.00;4.90;;;;;;;4.39;70.37;98993.53;5095679;28;20255;-67
2021/04/08 06:55:24;;;;;;;6.63;4.27;;;;;;;4.49;70.73;98995.81;5095608;28;20231;-66
2021/04/08 06:57:51;;;;;;;5.43;4.40;;;;;;;4.70;70.87;98992.50;5095578;28;20562;-67
2021/04/08 07:00:18;;;;;;;5.53;4.07;;;;;;;4.90;70.14;98992.69;5095558;28;20221;-67
2021/04/08 07:02:45;;;;;;;7.20;4.00;;;;;;;5.03;68.02;98994.03;5095256;28;20211;-67
2021/04/08 07:05:12;;;;;;;6.83;4.17;;;;;;;5.20;67.04;98994.28;5094996;28;20234;-67
2021/04/08 07:07:38;;;;;;;4.97;4.10;;;;;;;5.30;65.09;98987.84;5094070;28;20234;-67
2021/04/08 07:10:05;;;;;;;7.33;4.53;;;;;;;5.38;64.09;98996.28;5094985;28;20264;-65
2021/04/08 07:12:32;;;;;;;5.37;4.30;;;;;;;5.58;64.18;98999.09;5095077;28;20211;-67
2021/04/08 07:14:59;;;;;;;6.83;4.63;;;;;;;5.67;61.98;98997.91;5094958;28;20211;-67
2021/04/08 07:17:26;;;;;;;5.93;4.67;;;;;;;5.67;61.25;99003.97;5095179;28;20211;-67
2021/04/08 07:19:55;;;;;;;6.20;4.20;;;;;;;5.68;61.42;99004.84;5094653;28;20204;-66
2021/04/08 07:22:21;;;;;;;7.83;4.43;;;;;;;5.72;62.04;99012.53;5095123;28;20214;-67
2021/04/08 07:24:48;;;;;;;7.67;3.90;;;;;;;5.67;60.26;99009.22;5095431;28;20234;-66
2021/04/08 07:27:19;;;;;;;4.90;3.53;;;;;;;5.78;59.89;99012.31;5095020;28;20211;-66
2021/04/08 07:29:54;;;;;;;5.97;3.90;;;;;;;5.92;58.79;99015.31;5094966;28;20206;-66
2021/04/08 07:32:30;;;;;;;7.47;3.93;;;;;;;6.08;58.04;99016.47;5093981;28;20254;-67
2021/04/08 07:34:59;;;;;;;5.37;3.80;;;;;;;6.27;56.26;99021.88;5090356;28;20225;-66
2021/04/08 07:37:28;;;;;;;7.03;4.33;;;;;;;6.27;54.49;99017.50;5093738;28;20217;-67
2021/04/08 07:39:55;;;;;;;9.30;4.60;;;;;;;6.31;56.67;99019.09;5093891;28;20212;-67
2021/04/08 07:42:26;;;;;;;5.73;4.17;;;;;;;6.13;54.41;99014.53;5092349;28;20624;-67
2021/04/08 07:44:55;;;;;;;7.03;4.43;;;;;;;5.99;56.06;99022.06;5091888;28;20557;-66
2021/04/08 07:47:28;;;;;;;6.33;3.90;;;;;;;5.96;55.65;99026.56;5093642;28;20206;-67
2021/04/08 07:49:56;;;;;;;5.20;3.67;;;;;;;5.94;54.97;99026.63;5093216;28;20211;-67
2021/04/08 07:52:25;;;;;;;6.23;3.77;;;;;;;5.74;53.56;99021.19;5093413;28;20297;-66
2021/04/08 07:55:07;;;;;;;6.43;3.47;;;;;;;5.63;53.35;99028.59;5093215;28;20215;-66
2021/04/08 07:58:01;;;;;;;4.20;3.70;;;;;;;5.57;52.87;99033.22;5092729;28;20207;-66
2021/04/08 08:00:30;;;;;;;6.27;3.77;;;;;;;5.67;53.66;99035.44;5091881;28;20645;-67
2021/04/08 08:03:00;;;;;;;5.87;3.27;;;;;;;5.92;51.08;99041.56;5092841;28;20671;-67
2021/04/08 08:05:29;;;;;;;6.23;3.70;;;;;;;6.16;49.88;99045.91;5092370;28;20234;-67
2021/04/08 08:08:08;;;;;;;5.20;3.60;;;;;;;6.43;49.02;99050.13;5093375;28;20212;-67
2021/04/08 08:10:34;;;;;;;5.00;3.50;;;;;;;6.72;48.61;99044.59;5093174;28;20225;-67
2021/04/08 08:13:00;;;;;;;4.57;3.20;;;;;;;6.84;48.33;99046.72;5091663;28;20743;-67
2021/04/08 08:15:28;;;;;;;5.03;3.80;;;;;;;6.77;48.35;99050.53;5092931;28;20209;-66
2021/04/08 08:17:55;;;;;;;4.80;3.40;;;;;;;6.81;49.40;99044.25;5093165;28;20210;-67
2021/04/08 08:20:23;;;;;;;6.10;3.23;;;;;;;6.89;45.97;99052.66;5092064;28;20295;-67
2021/04/08 08:22:49;;;;;;;5.00;3.80;;;;;;;6.93;45.49;99046.38;5092898;28;20207;-66
2021/04/08 08:25:22;;;;;;;4.67;3.50;;;;;;;6.99;45.26;99046.13;5093181;28;20230;-66
2021/04/08 08:27:50;;;;;;;3.43;3.00;;;;;;;7.01;45.25;99036.41;5090626;28;20211;-66
2021/04/08 08:30:18;;;;;;;5.07;3.40;;;;;;;7.02;44.80;99038.09;5091429;28;20276;-66
2021/04/08 08:33:05;;;;;;;5.90;3.13;;;;;;;7.16;43.15;99035.78;5092430;28;20757;-66
2021/04/08 08:35:32;;;;;;;4.97;3.40;;;;;;;7.39;45.04;99046.19;5092971;28;20210;-66
2021/04/08 08:38:07;;;;;;;4.43;3.40;;;;;;;7.71;46.08;99040.44;5092725;28;20730;-66
2021/04/08 08:40:34;;;;;;;6.27;4.63;;;;;;;7.91;46.30;99035.97;5093107;28;20212;-66
2021/04/08 08:43:01;;;;;;;6.83;4.50;;;;;;;7.85;44.76;99033.59;5092834;28;20213;-66
2021/04/08 08:45:27;;;;;;;5.43;4.50;;;;;;;7.70;45.71;99046.59;5092631;28;20585;-67
2021/04/08 08:47:54;;;;;;;5.90;4.37;;;;;;;7.57;45.25;99040.13;5092968;28;20395;-67
2021/04/08 08:50:20;;;;;;;8.57;4.47;;;;;;;7.44;47.13;99044.22;5092614;28;20214;-66
2021/04/08 08:52:50;;;;;;;6.50;4.60;;;;;;;7.20;48.25;99045.25;5092543;28;20213;-67
2021/04/08 08:55:18;;;;;;;6.23;4.90;;;;;;;7.07;50.21;99051.94;5089750;28;20614;-66
2021/04/08 08:57:49;;;;;;;6.87;4.43;;;;;;;6.92;51.00;99054.31;5092354;28;20677;-66
2021/04/08 09:00:17;;;;;;;5.40;4.00;;;;;;;6.85;50.79;99051.06;5092503;28;20207;-66
2021/04/08 09:02:44;;;;;;;5.27;4.43;;;;;;;6.82;51.55;99048.56;5092772;28;20217;-66
2021/04/08 09:05:14;;;;;;;5.57;4.00;;;;;;;6.82;51.88;99051.19;5092625;28;20230;-66
2021/04/08 09:07:42;;;;;;;8.27;4.50;;;;;;;6.79;52.41;99053.94;5092990;28;20219;-67
2021/04/08 09:10:13;;;;;;;5.33;4.30;;;;;;;7.08;51.50;99053.63;5091888;28;20208;-67
2021/04/08 09:12:40;;;;;;;7.20;4.00;;;;;;;7.37;50.73;99045.41;5090973;28;20257;-67
2021/04/08 09:15:08;;;;;;;4.83;3.87;;;;;;;7.48;51.46;99043.19;5092495;28;20220;-67
2021/04/08 09:17:38;;;;;;;6.90;4.40;;;;;;;7.40;50.10;99045.25;5092095;28;20201;-65
2021/04/08 09:20:05;;;;;;;7.73;4.63;;;;;;;7.12;51.83;99049.97;5092342;28;20300;-66
2021/04/08 09:22:31;;;;;;;6.83;4.20;;;;;;;7.00;51.88;99050.47;5090308;28;20219;-67
2021/04/08 09:24:57;;;;;;;5.87;4.30;;;;;;;6.60;51.71;99052.94;5091961;28;20724;-67
2021/04/08 09:27:24;;;;;;;5.60;4.30;;;;;;;6.26;52.63;99055.16;5092626;28;20209;-66
2021/04/08 09:29:55;;;;;;;6.90;4.37;;;;;;;6.00;53.53;99050.03;5092297;28;20739;-66
2021/04/08 09:32:27;;;;;;;6.73;4.37;;;;;;;5.80;54.55;99060.38;5092475;28;20572;-66
2021/04/08 09:35:15;;;;;;;8.63;4.60;;;;;;;5.61;55.79;99063.69;5092547;28;20582;-66
2021/04/08 09:38:19;;;;;;;7.77;4.77;;;;;;;5.58;56.90;99061.13;5092464;28;20242;-66
2021/04/08 09:41:00;;;;;;;7.30;4.43;;;;;;;5.52;57.84;99059.59;5092262;28;20211;-67
2021/04/08 09:43:28;;;;;;;6.60;5.00;;;;;;;5.56;58.51;99062.97;5092596;28;20628;-67
2021/04/08 09:46:04;;;;;;;8.67;4.97;;;;;;;5.82;58.73;99055.94;5096220;28;20243;-66
2021/04/08 09:48:52;;;;;;;6.93;4.53;;;;;;;6.06;59.69;99051.56;5094663;28;20206;-65
2021/04/08 09:51:32;;;;;;;5.27;4.07;;;;;;;6.17;56.79;99046.78;5096414;28;20216;-66
2021/04/08 09:54:07;;;;;;;5.93;4.00;;;;;;;6.22;56.44;99045.69;5096594;28;20261;-66
2021/04/08 09:56:45;;;;;;;6.43;4.07;;;;;;;6.28;55.16;99047.25;5096157;28;20676;-67
2021/04/08 09:59:13;;;;;;;7.30;5.07;;;;;;;6.26;57.54;99036.78;5096182;28;20208;-66
2021/04/08 10:01:39;;;;;;;5.17;4.20;;;;;;;6.52;55.32;99034.00;5095345;28;20681;-66
2021/04/08 10:04:13;;;;;;;5.97;4.13;;;;;;;6.87;53.57;99022.97;5095757;28;20276;-67
2021/04/08 10:06:39;;;;;;;6.70;4.33;;;;;;;7.13;50.40;99028.00;5095546;28;20235;-66
2021/04/08 10:09:09;;;;;;;5.23;3.97;;;;;;;7.33;51.17;99025.41;5095589;28;20664;-67
2021/04/08 10:11:36;;;;;;;5.83;3.70;;;;;;;7.64;50.48;99021.41;5095816;28;20215;-67
2021/04/08 10:14:22;;;;;;;6.67;4.40;;;;;;;7.84;50.19;99024.00;5095656;28;20232;-67
2021/04/08 10:17:02;;;;;;;6.67;5.27;;;;;;;7.61;48.47;99033.84;5095902;28;20207;-67
2021/04/08 10:19:31;;;;;;;7.20;4.93;;;;;;;7.42;49.05;99035.56;5095804;28;20215;-67
2021/04/08 10:21:57;;;;;;;5.70;4.63;;;;;;;7.46;48.47;99037.09;5095704;28;20497;-67
2021/04/08 10:24:23;;;;;;;7.97;4.70;;;;;;;7.28;49.52;99043.16;5095709;28;20211;-67
2021/04/08 10:26:49;;;;;;;5.83;4.50;;;;;;;7.32;49.32;99039.47;5095378;28;20296;-67
2021/04/08 10:29:31;;;;;;;6.33;4.77;;;;;;;7.49;50.22;99031.72;5095457;28;20209;-67
2021/04/08 10:31:57;;;;;;;6.80;4.60;;;;;;;7.28;49.06;99037.91;5095418;28;20206;-65
2021/04/08 10:34:23;;;;;;;5.97;4.40;;;;;;;7.27;47.71;99036.19;5095462;28;20222;-67
2021/04/08 10:36:54;;;;;;;6.87;4.17;;;;;;;7.32;48.51;99030.75;5095000;28;20676;-66
2021/04/08 10:39:22;;;;;;;7.07;4.13;;;;;;;7.51;48.50;99019.38;5094622;28;20266;-66
2021/04/08 10:41:59;;;;;;;7.07;5.10;;;;;;;7.88;49.04;99025.59;5090990;28;20578;-66
2021/04/08 10:44:28;;;;;;;7.93;5.40;;;;;;;8.15;48.86;99018.25;5095204;28;20206;-66
2021/04/08 10:46:55;;;;;;;8.20;5.37;;;;;;;8.11;47.23;99029.81;5095227;28;20245;-67
2021/04/08 10:49:24;;;;;;;5.87;4.70;;;;;;;7.95;46.77;99027.03;5094974;28;20686;-66
2021/04/08 10:51:51;;;;;;;7.00;4.97;;;;;;;8.09;48.22;99021.16;5095074;28;20218;-66
2021/04/08 10:54:17;;;;;;;8.00;5.10;;;;;;;8.25;46.22;99024.81;5094655;28;20220;-66
2021/04/08 10:56:47;;;;;;;8.20;4.70;;;;;;;8.16;46.47;99014.69;5094909;28;20214;-66
2021/04/08 10:59:18;;;;;;;8.13;5.17;;;;;;;8.18;46.95;99015.44;5094924;28;20205;-67
2021/04/08 11:01:45;;;;;;;9.50;5.17;;;;;;;8.17;46.54;99011.97;5094950;28;20205;-67
2021/04/08 11:04:11;;;;;;;7.97;5.17;;;;;;;8.18;47.63;99015.44;5094952;28;20213;-68
2021/04/08 11:06:37;;;;;;;8.80;5.13;;;;;;;8.57;47.68;99016.28;5094825;28;20233;-67
2021/04/08 11:09:04;;;;;;;6.30;4.97;;;;;;;8.75;45.31;99007.50;5092876;28;20218;-66
2021/04/08 11:11:30;;;;;;;7.50;4.70;;;;;;;8.88;46.58;99012.09;5094639;28;20213;-67
2021/04/08 11:13:56;;;;;;;7.27;4.87;;;;;;;9.00;45.78;99008.03;5094382;28;20240;-67
2021/04/08 11:16:23;;;;;;;5.83;4.90;;;;;;;9.02;46.53;99003.53;5094636;28;20891;-68
2021/04/08 11:18:50;;;;;;;7.57;4.73;;;;;;;9.17;46.69;99010.69;5094584;28;20212;-66
2021/04/08 11:21:16;;;;;;;7.33;4.73;;;;;;;9.36;44.73;99009.66;5094139;28;20217;-66
2021/04/08 11:23:43;;;;;;;10.23;5.27;;;;;;;9.35;44.51;99007.09;5093573;28;20205;-66
2021/04/08 11:26:10;;;;;;;7.90;5.53;;;;;;;9.22;44.16;99000.75;5090972;28;20234;-67
2021/04/08 11:28:41;;;;;;;7.90;4.67;;;;;;;9.02;44.22;99012.28;5089366;28;20213;-67
2021/04/08 11:31:14;;;;;;;6.03;4.73;;;;;;;9.09;44.39;98997.00;5090189;28;20299;-67
2021/04/08 11:33:41;;;;;;;4.70;3.77;;;;;;;9.20;44.06;99002.59;5090202;28;20205;-67
2021/04/08 11:36:17;;;;;;;6.00;4.40;;;;;;;9.36;44.18;98990.38;5089543;28;21216;-66
2021/04/08 11:38:43;;;;;;;7.60;4.90;;;;;;;9.30;43.05;98993.31;5090361;28;20213;-67
2021/04/08 11:41:10;;;;;;;7.63;4.83;;;;;;;8.82;43.63;98990.47;5093752;28;20202;-67
2021/04/08 11:43:44;;;;;;;7.37;5.20;;;;;;;8.51;43.95;99000.78;5089656;28;20693;-67
2021/04/08 11:46:24;;;;;;;7.83;4.67;;;;;;;8.38;43.94;99004.91;5089706;28;20244;-67
2021/04/08 11:48:50;;;;;;;6.23;4.73;;;;;;;8.54;45.06;99000.59;5089357;28;20209;-66